createdAt,value
2018-07-14T00:00:08.864Z,14.50
2018-07-14T00:02:37.943Z,14.50
2018-07-14T00:05:07.004Z,14.50
2018-07-14T00:07:36.758Z,14.50
2018-07-14T00:10:05.904Z,14.50
2018-07-14T00:12:35.236Z,14.50
2018-07-14T00:15:04.320Z,14.50
2018-07-14T00:20:02.123Z,14.60
2018-07-14T00:22:31.196Z,14.60
2018-07-14T00:27:29.047Z,14.70
2018-07-14T00:29:58.221Z,14.70
2018-07-14T00:32:27.294Z,14.70
2018-07-14T00:34:56.351Z,14.70
2018-07-14T00:37:25.427Z,14.70
2018-07-14T00:39:54.483Z,14.60
2018-07-14T00:42:23.568Z,14.60
2018-07-14T00:47:21.370Z,14.60
2018-07-14T00:49:50.419Z,14.60
2018-07-14T00:52:19.492Z,14.50
2018-07-14T00:54:48.580Z,14.50
2018-07-14T00:57:17.635Z,14.50
2018-07-14T01:07:13.684Z,14.40
2018-07-14T01:09:46.257Z,14.40
2018-07-14T01:12:15.322Z,14.40
2018-07-14T01:14:44.404Z,14.40
2018-07-14T01:17:13.472Z,14.40
2018-07-14T01:19:42.571Z,14.30
2018-07-14T01:27:09.064Z,14.40
2018-07-14T01:29:38.152Z,14.40
2018-07-14T01:32:07.212Z,14.40
2018-07-14T01:34:36.292Z,14.30
2018-07-14T01:37:05.379Z,14.20
2018-07-14T01:39:34.459Z,14.20
2018-07-14T01:42:03.536Z,14.20
2018-07-14T01:44:32.633Z,14.10
2018-07-14T01:47:01.712Z,14.10
2018-07-14T01:52:00.148Z,14.00
2018-07-14T01:54:29.264Z,13.90
2018-07-14T01:56:58.337Z,13.80
2018-07-14T01:59:27.427Z,13.80
2018-07-14T02:01:56.488Z,13.80
2018-07-14T02:04:25.590Z,13.70
2018-07-14T02:06:54.648Z,13.70
2018-07-14T02:09:23.740Z,13.70
2018-07-14T02:11:52.788Z,13.70
2018-07-14T02:16:50.560Z,13.80
2018-07-14T02:21:48.600Z,13.80
2018-07-14T02:24:17.675Z,13.80
2018-07-14T02:26:46.724Z,13.80
2018-07-14T02:29:15.776Z,13.70
2018-07-14T02:31:44.875Z,13.80
2018-07-14T02:34:13.924Z,13.80
2018-07-14T02:36:42.984Z,13.80
2018-07-14T02:39:12.036Z,13.70
2018-07-14T02:41:41.111Z,13.70
2018-07-14T02:44:10.156Z,13.80
2018-07-14T02:46:39.221Z,13.80
2018-07-14T02:56:34.577Z,13.60
2018-07-14T03:01:32.499Z,13.60
2018-07-14T03:04:01.644Z,13.60
2018-07-14T03:06:30.716Z,13.60
2018-07-14T03:08:59.808Z,13.50
2018-07-14T03:11:28.900Z,13.50
2018-07-14T03:13:57.969Z,13.50
2018-07-14T03:16:27.054Z,13.50
2018-07-14T03:18:56.120Z,13.50
2018-07-14T03:21:25.203Z,13.50
2018-07-14T03:23:54.272Z,13.50
2018-07-14T03:26:23.360Z,13.40
2018-07-14T03:28:52.431Z,13.40
2018-07-14T03:31:21.548Z,13.40
2018-07-14T03:33:50.612Z,13.40
2018-07-14T03:38:48.766Z,13.40
2018-07-14T03:41:17.852Z,13.40
2018-07-14T03:43:46.919Z,13.50
2018-07-14T03:46:16.008Z,13.50
2018-07-14T03:48:45.084Z,13.60
2018-07-14T03:53:42.860Z,13.50
2018-07-14T03:58:40.672Z,13.50
2018-07-14T04:01:09.740Z,13.50
2018-07-14T04:03:38.884Z,13.60
2018-07-14T04:06:08.056Z,13.60
2018-07-14T04:08:37.206Z,13.60
2018-07-14T04:11:06.280Z,13.70
2018-07-14T04:13:35.497Z,13.60
2018-07-14T04:16:04.764Z,13.60
2018-07-14T04:18:33.848Z,13.70
2018-07-14T04:21:02.917Z,13.70
2018-07-14T04:23:32.004Z,13.80
2018-07-14T04:26:01.072Z,13.80
2018-07-14T04:28:30.172Z,13.90
2018-07-14T04:30:59.236Z,13.90
2018-07-14T04:33:28.324Z,13.90
2018-07-14T04:35:57.384Z,13.90
2018-07-14T04:38:26.469Z,14.00
2018-07-14T04:40:55.528Z,14.00
2018-07-14T04:43:24.612Z,14.10
2018-07-14T04:45:53.672Z,14.20
2018-07-14T04:48:22.787Z,14.20
2018-07-14T04:53:20.580Z,14.30
2018-07-14T04:55:49.644Z,14.40
2018-07-14T04:58:18.731Z,14.50
2018-07-14T05:00:47.808Z,14.60
2018-07-14T05:03:16.891Z,14.60
2018-07-14T05:05:45.964Z,14.70
2018-07-14T05:08:15.073Z,14.80
2018-07-14T05:10:44.137Z,14.80
2018-07-14T05:15:41.988Z,14.90
2018-07-14T05:18:11.081Z,15.10
2018-07-14T05:20:40.143Z,15.10
2018-07-14T05:23:09.255Z,15.10
2018-07-14T05:25:38.548Z,15.20
2018-07-14T05:28:07.635Z,15.30
2018-07-14T05:30:36.729Z,15.30
2018-07-14T05:33:05.836Z,15.40
2018-07-14T05:35:35.359Z,15.40
2018-07-14T05:38:04.477Z,15.40
2018-07-14T05:40:33.558Z,15.50
2018-07-14T05:43:02.624Z,15.60
2018-07-14T05:45:31.715Z,15.70
2018-07-14T05:48:00.843Z,15.80
2018-07-14T05:50:29.913Z,15.90
2018-07-14T05:52:58.963Z,16.00
2018-07-14T05:55:28.235Z,16.20
2018-07-14T05:57:57.276Z,16.30
2018-07-14T06:02:55.063Z,16.60
2018-07-14T06:05:24.132Z,16.90
2018-07-14T06:07:53.213Z,17.00
2018-07-14T06:10:22.345Z,17.10
2018-07-14T06:12:51.392Z,16.90
2018-07-14T06:15:20.480Z,16.80
2018-07-14T06:17:49.519Z,16.80
2018-07-14T06:20:18.593Z,16.90
2018-07-14T06:22:47.649Z,16.90
2018-07-14T06:25:16.733Z,17.10
2018-07-14T06:27:45.783Z,17.20
2018-07-14T06:30:14.857Z,17.40
2018-07-14T06:32:43.908Z,17.60
2018-07-14T06:37:41.648Z,17.50
2018-07-14T06:40:10.773Z,17.50
2018-07-14T06:42:39.820Z,17.90
2018-07-14T06:45:08.883Z,17.90
2018-07-14T06:47:37.932Z,17.70
2018-07-14T06:50:07.036Z,17.30
2018-07-14T06:52:36.108Z,16.90
2018-07-14T06:55:05.194Z,16.60
2018-07-14T06:57:34.268Z,16.70
2018-07-14T07:02:32.070Z,16.80
2018-07-14T07:05:01.245Z,16.70
2018-07-14T07:07:30.303Z,16.70
2018-07-14T07:09:59.404Z,16.80
2018-07-14T07:12:28.493Z,16.70
2018-07-14T07:14:57.560Z,16.80
2018-07-14T07:17:26.649Z,16.90
2018-07-14T07:19:55.712Z,17.10
2018-07-14T07:24:53.512Z,17.20
2018-07-14T07:27:22.600Z,17.30
2018-07-14T07:32:20.388Z,17.50
2018-07-14T07:34:49.453Z,17.70
2018-07-14T07:37:18.544Z,17.80
2018-07-14T07:39:47.622Z,17.80
2018-07-14T07:42:16.715Z,17.70
2018-07-14T07:44:45.935Z,17.90
2018-07-14T07:47:15.021Z,18.10
2018-07-14T07:49:44.079Z,18.40
2018-07-14T07:52:13.160Z,18.40
2018-07-14T07:54:42.224Z,18.70
2018-07-14T07:57:11.505Z,18.80
2018-07-14T07:59:40.784Z,18.90
2018-07-14T08:02:10.313Z,19.00
2018-07-14T08:04:39.592Z,19.00
2018-07-14T08:07:09.323Z,19.10
2018-07-14T08:09:38.710Z,19.30
2018-07-14T08:12:07.852Z,19.30
2018-07-14T08:14:36.929Z,19.30
2018-07-14T08:17:05.992Z,19.50
2018-07-14T08:19:35.036Z,19.50
2018-07-14T08:22:04.096Z,19.70
2018-07-14T08:24:33.144Z,19.90
2018-07-14T08:31:59.567Z,20.50
2018-07-14T08:34:28.617Z,20.70
2018-07-14T08:39:26.363Z,21.30
2018-07-14T08:41:55.437Z,21.40
2018-07-14T08:44:24.476Z,21.50
2018-07-14T08:46:53.516Z,21.50
2018-07-14T08:49:22.572Z,21.40
2018-07-14T08:51:51.620Z,21.20
2018-07-14T08:54:20.685Z,21.20
2018-07-14T08:56:49.725Z,21.10
2018-07-14T08:59:18.784Z,21.00
2018-07-14T09:01:47.824Z,20.90
2018-07-14T09:04:16.888Z,20.90
2018-07-14T09:06:45.929Z,21.00
2018-07-14T09:09:15.024Z,21.20
2018-07-14T09:11:44.203Z,21.60
2018-07-14T09:14:13.292Z,21.60
2018-07-14T09:16:42.352Z,21.80
2018-07-14T09:19:11.432Z,22.00
2018-07-14T09:26:37.892Z,22.50
2018-07-14T09:34:04.440Z,22.60
2018-07-14T09:36:33.516Z,22.60
2018-07-14T09:39:02.600Z,22.50
2018-07-14T09:41:31.656Z,22.50
2018-07-14T09:46:29.416Z,22.60
2018-07-14T09:48:58.501Z,22.60
2018-07-14T09:51:27.567Z,22.60
2018-07-14T09:53:56.644Z,22.70
2018-07-14T09:56:25.705Z,22.60
2018-07-14T09:58:54.781Z,22.50
2018-07-14T10:01:23.843Z,22.90
2018-07-14T10:03:52.912Z,23.00
2018-07-14T10:06:21.973Z,23.30
2018-07-14T10:08:51.051Z,23.40
2018-07-14T10:11:20.095Z,23.40
2018-07-14T10:13:49.153Z,23.70
2018-07-14T10:16:18.192Z,23.70
2018-07-14T10:18:47.300Z,23.80
2018-07-14T10:23:44.991Z,24.10
2018-07-14T10:26:14.048Z,24.40
2018-07-14T10:28:43.083Z,24.50
2018-07-14T10:31:12.141Z,24.80
2018-07-14T10:33:41.260Z,24.60
2018-07-14T10:36:10.268Z,24.50
2018-07-14T10:38:39.352Z,24.80
2018-07-14T10:41:08.500Z,25.20
2018-07-14T10:43:37.532Z,25.60
2018-07-14T10:51:03.948Z,25.40
2018-07-14T10:53:32.981Z,25.20
2018-07-14T10:56:02.045Z,25.10
2018-07-14T10:58:31.088Z,25.30
2018-07-14T11:01:00.149Z,25.60
2018-07-14T11:03:29.196Z,25.70
2018-07-14T11:05:58.260Z,25.50
2018-07-14T11:08:27.344Z,25.60
2018-07-14T11:10:56.427Z,25.80
2018-07-14T11:13:25.492Z,26.00
2018-07-14T11:15:54.567Z,26.10
2018-07-14T11:18:23.624Z,25.70
2018-07-14T11:20:52.699Z,25.90
2018-07-14T11:23:21.760Z,25.80
2018-07-14T11:25:50.836Z,25.90
2018-07-14T11:28:19.904Z,25.60
2018-07-14T11:30:48.996Z,26.00
2018-07-14T11:33:18.058Z,25.90
2018-07-14T11:35:47.135Z,25.90
2018-07-14T11:38:16.204Z,25.60
2018-07-14T11:40:45.293Z,25.70
2018-07-14T11:43:14.363Z,26.00
2018-07-14T11:45:43.457Z,26.40
2018-07-14T11:48:12.516Z,26.10
2018-07-14T11:50:42.458Z,25.90
2018-07-14T11:53:11.541Z,25.90
2018-07-14T11:55:40.600Z,26.20
2018-07-14T11:58:09.682Z,26.30
2018-07-14T12:00:38.740Z,26.40
2018-07-14T12:03:07.821Z,26.50
2018-07-14T12:05:36.877Z,26.60
2018-07-14T12:08:05.955Z,26.70
2018-07-14T12:10:34.996Z,27.30
2018-07-14T12:13:04.064Z,27.40
2018-07-14T12:15:33.104Z,27.30
2018-07-14T12:18:02.176Z,27.30
2018-07-14T12:22:59.952Z,27.40
2018-07-14T12:27:57.688Z,28.10
2018-07-14T12:30:26.746Z,28.20
2018-07-14T12:32:55.898Z,27.90
2018-07-14T12:35:24.939Z,27.60
2018-07-14T12:37:53.995Z,27.30
2018-07-14T12:40:23.052Z,27.90
2018-07-14T12:42:52.120Z,28.10
2018-07-14T12:45:21.161Z,27.90
2018-07-14T12:47:50.218Z,27.80
2018-07-14T12:50:19.256Z,28.40
2018-07-14T12:52:48.311Z,29.60
2018-07-14T12:57:46.044Z,31.30
2018-07-14T13:00:15.151Z,30.90
2018-07-14T13:02:44.238Z,31.90
2018-07-14T13:05:13.289Z,32.00
2018-07-14T13:07:42.389Z,31.20
2018-07-14T13:10:11.464Z,31.90
2018-07-14T13:15:09.240Z,30.90
2018-07-14T13:20:07.163Z,29.80
2018-07-14T13:22:36.224Z,30.50
2018-07-14T13:27:34.004Z,29.90
2018-07-14T13:32:31.843Z,30.20
2018-07-14T13:35:00.955Z,31.10
2018-07-14T13:37:30.024Z,31.90
2018-07-14T13:39:59.108Z,32.20
2018-07-14T13:42:28.159Z,32.60
2018-07-14T13:44:57.256Z,33.10
2018-07-14T13:47:26.328Z,32.20
2018-07-14T13:49:55.404Z,34.10
2018-07-14T13:52:24.464Z,33.20
2018-07-14T13:54:53.555Z,32.60
2018-07-14T14:02:20.004Z,33.00
2018-07-14T14:04:49.089Z,32.50
2018-07-14T14:07:18.157Z,32.60
2018-07-14T14:09:47.240Z,33.80
2018-07-14T14:12:16.308Z,33.70
2018-07-14T14:19:42.716Z,32.30
2018-07-14T14:22:11.787Z,31.40
2018-07-14T14:24:40.838Z,30.60
2018-07-14T14:27:09.900Z,31.40
2018-07-14T14:29:38.948Z,33.20
2018-07-14T14:32:08.051Z,34.10
2018-07-14T14:34:37.108Z,34.30
2018-07-14T14:37:06.178Z,33.50
2018-07-14T14:39:35.220Z,33.30
2018-07-14T14:42:04.293Z,34.60
2018-07-14T14:44:33.397Z,35.60
2018-07-14T14:47:02.468Z,34.40
2018-07-14T14:49:31.507Z,32.30
2018-07-14T14:52:00.580Z,32.40
2018-07-14T14:54:29.644Z,32.20
2018-07-14T14:56:58.740Z,31.40
2018-07-14T14:59:27.788Z,32.00
2018-07-14T15:01:56.844Z,33.00
2018-07-14T15:04:25.887Z,33.60
2018-07-14T15:06:54.969Z,33.30
2018-07-14T15:09:24.104Z,34.10
2018-07-14T15:14:21.860Z,36.30
2018-07-14T15:16:50.920Z,36.80
2018-07-14T15:19:20.014Z,36.50
2018-07-14T15:21:49.063Z,36.40
2018-07-14T15:24:18.132Z,36.60
2018-07-14T15:29:22.624Z,36.80
2018-07-14T15:31:51.684Z,36.50
2018-07-14T15:34:20.771Z,37.20
2018-07-14T15:36:49.836Z,38.60
2018-07-14T15:39:18.920Z,39.90
2018-07-14T15:41:48.004Z,40.00
2018-07-14T15:44:17.071Z,39.00
2018-07-14T15:46:46.135Z,38.60
2018-07-14T15:49:15.211Z,37.60
2018-07-14T15:51:44.283Z,38.50
2018-07-14T15:56:42.072Z,40.20
2018-07-14T15:59:11.132Z,41.00
2018-07-14T16:01:40.223Z,39.80
2018-07-14T16:04:09.297Z,40.60
2018-07-14T16:06:38.383Z,41.10
2018-07-14T16:09:07.876Z,40.70
2018-07-14T16:11:37.101Z,39.90
2018-07-14T16:14:06.276Z,40.40
2018-07-14T16:16:35.441Z,40.20
2018-07-14T16:19:04.593Z,40.00
2018-07-14T16:21:33.656Z,40.00
2018-07-14T16:24:02.800Z,39.50
2018-07-14T16:26:31.860Z,39.30
2018-07-14T16:29:00.901Z,40.00
2018-07-14T16:31:29.968Z,38.60
2018-07-14T16:33:59.012Z,39.00
2018-07-14T16:36:28.072Z,38.50
2018-07-14T16:38:57.111Z,38.30
2018-07-14T16:46:23.583Z,39.20
2018-07-14T16:51:21.314Z,39.70
2018-07-14T16:53:50.359Z,38.90
2018-07-14T16:58:48.216Z,39.10
2018-07-14T17:03:46.309Z,38.90
2018-07-14T17:06:15.365Z,40.20
2018-07-14T17:08:44.679Z,40.60
2018-07-14T17:11:13.745Z,41.20
2018-07-14T17:13:42.829Z,40.00
2018-07-14T17:18:40.600Z,38.70
2018-07-14T17:23:38.480Z,38.60
2018-07-14T17:26:07.544Z,38.90
2018-07-14T17:28:36.733Z,39.30
2018-07-14T17:31:05.908Z,38.20
2018-07-14T17:33:35.000Z,38.40
2018-07-14T17:36:04.065Z,37.40
2018-07-14T17:38:33.147Z,37.20
2018-07-14T17:41:02.220Z,37.20
2018-07-14T17:43:31.313Z,37.70
2018-07-14T17:46:00.595Z,37.20
2018-07-14T17:48:29.816Z,36.90
2018-07-14T17:50:58.995Z,37.40
2018-07-14T17:53:28.076Z,36.80
2018-07-14T17:55:57.152Z,36.20
2018-07-14T18:00:54.913Z,34.40
2018-07-14T18:03:24.000Z,34.40
2018-07-14T18:05:53.059Z,34.60
2018-07-14T18:08:22.159Z,34.60
2018-07-14T18:10:52.589Z,34.20
2018-07-14T18:13:21.670Z,34.00
2018-07-14T18:15:50.767Z,33.90
2018-07-14T18:18:19.825Z,33.30
2018-07-14T18:20:48.917Z,32.90
2018-07-14T18:25:46.700Z,32.50
2018-07-14T18:28:15.759Z,32.20
2018-07-14T18:30:44.968Z,32.10
2018-07-14T18:33:14.028Z,32.10
2018-07-14T18:35:43.104Z,31.70
2018-07-14T18:38:12.157Z,31.40
2018-07-14T18:40:41.231Z,31.30
2018-07-14T18:43:10.288Z,31.20
2018-07-14T18:50:36.731Z,29.60
2018-07-14T18:53:06.003Z,28.90
2018-07-14T18:55:35.088Z,28.30
2018-07-14T18:58:04.148Z,27.60
2018-07-14T19:00:33.224Z,26.90
2018-07-14T19:03:02.288Z,26.50
2018-07-14T19:05:31.361Z,26.10
2018-07-14T19:08:00.432Z,25.90
2018-07-14T19:10:29.511Z,25.60
2018-07-14T19:12:58.572Z,25.40
2018-07-14T19:15:27.649Z,25.10
2018-07-14T19:17:56.700Z,24.90
2018-07-14T19:20:25.780Z,24.70
2018-07-14T19:22:54.889Z,24.50
2018-07-14T19:25:24.016Z,24.30
2018-07-14T19:30:21.824Z,23.70
2018-07-14T19:32:50.883Z,23.40
2018-07-14T19:35:19.956Z,23.20
2018-07-14T19:37:49.070Z,23.00
2018-07-14T19:40:18.462Z,22.80
2018-07-14T19:42:47.534Z,22.60
2018-07-14T19:45:16.612Z,22.30
2018-07-14T19:47:45.675Z,22.20
2018-07-14T19:50:14.749Z,22.00
2018-07-14T19:52:43.807Z,21.80
2018-07-14T19:55:12.896Z,21.70
2018-07-14T19:57:41.948Z,21.50
2018-07-14T20:00:11.009Z,21.30
2018-07-14T20:02:40.084Z,21.10
2018-07-14T20:05:09.145Z,21.00
2018-07-14T20:07:38.224Z,20.90
2018-07-14T20:10:07.312Z,20.70
2018-07-14T20:12:36.412Z,20.60
2018-07-14T20:15:05.480Z,20.50
2018-07-14T20:17:34.552Z,20.50
2018-07-14T20:20:03.596Z,20.30
2018-07-14T20:22:32.656Z,20.20
2018-07-14T20:25:01.702Z,20.20
2018-07-14T20:27:30.775Z,20.10
2018-07-14T20:29:59.834Z,20.10
2018-07-14T20:32:28.909Z,20.00
2018-07-14T20:37:26.709Z,19.80
2018-07-14T20:39:55.752Z,19.80
2018-07-14T20:42:24.815Z,19.70
2018-07-14T20:44:53.856Z,19.70
2018-07-14T20:47:22.920Z,19.60
2018-07-14T20:49:51.960Z,19.60
2018-07-14T20:52:21.042Z,19.50
2018-07-14T20:54:50.388Z,19.40
2018-07-14T20:57:19.456Z,19.40
2018-07-14T20:59:48.499Z,19.40
2018-07-14T21:02:17.652Z,19.40
2018-07-14T21:04:46.688Z,19.30
2018-07-14T21:07:15.768Z,19.30
2018-07-14T21:09:44.844Z,19.20
2018-07-14T21:14:42.612Z,19.20
2018-07-14T21:17:11.708Z,19.20
2018-07-14T21:19:40.776Z,19.20
2018-07-14T21:22:09.844Z,19.20
2018-07-14T21:24:38.952Z,19.10
2018-07-14T21:27:08.077Z,19.10
2018-07-14T21:29:37.156Z,19.00
2018-07-14T21:32:06.312Z,18.90
2018-07-14T21:37:04.108Z,18.50
2018-07-14T21:39:33.339Z,18.40
2018-07-14T21:42:02.400Z,18.40
2018-07-14T21:44:31.480Z,18.30
2018-07-14T21:47:00.544Z,18.20
2018-07-14T21:49:29.623Z,18.10
2018-07-14T21:51:58.697Z,18.10
2018-07-14T21:54:27.784Z,18.00
2018-07-14T21:56:56.848Z,18.00
2018-07-14T21:59:25.936Z,18.00
2018-07-14T22:04:23.716Z,18.10
2018-07-14T22:06:53.048Z,18.10
2018-07-14T22:09:22.136Z,18.20
2018-07-14T22:16:48.597Z,18.30
2018-07-14T22:19:17.660Z,18.30
2018-07-14T22:21:46.711Z,18.30
2018-07-14T22:24:15.780Z,18.30
2018-07-14T22:26:44.827Z,18.40
2018-07-14T22:29:13.914Z,18.40
2018-07-14T22:31:42.948Z,18.40
2018-07-14T22:34:12.032Z,18.30
2018-07-14T22:36:41.084Z,18.10
2018-07-14T22:41:38.823Z,18.20
2018-07-14T22:44:07.892Z,18.10
2018-07-14T22:46:36.943Z,18.10
2018-07-14T22:54:03.760Z,18.20
2018-07-14T22:56:32.823Z,18.20
2018-07-14T23:01:30.604Z,18.10
2018-07-14T23:06:29.166Z,18.00
2018-07-14T23:08:58.440Z,18.00
2018-07-14T23:11:27.500Z,17.90
2018-07-14T23:16:25.760Z,18.00
2018-07-14T23:18:54.800Z,17.90
2018-07-14T23:21:23.868Z,17.80
2018-07-14T23:23:52.930Z,17.70
2018-07-14T23:26:22.139Z,17.60
2018-07-14T23:28:51.182Z,17.50
2018-07-14T23:36:17.612Z,17.40
2018-07-14T23:38:46.660Z,17.30
2018-07-14T23:43:44.412Z,17.30
2018-07-14T23:46:13.476Z,17.40
2018-07-14T23:48:42.537Z,17.50
2018-07-14T23:51:11.605Z,17.50
2018-07-14T23:53:40.647Z,17.50
2018-07-14T23:56:09.718Z,17.40
2018-07-14T23:58:39.188Z,17.30
